sensor_id;sensor_type;location;lat;lon;timestamp;P1;durP1;ratioP1;P2;durP2;ratioP2
4106;SDS011;21906;50.812;7.132;2023-05-07T00:01:34;4.17;;;3.87;;
4106;SDS011;21906;50.812;7.132;2023-05-07T00:04:00;5.47;;;5.07;;
4106;SDS011;21906;50.812;7.132;2023-05-07T00:06:26;4.77;;;4.47;;
4106;SDS011;21906;50.812;7.132;2023-05-07T00:08:53;4.47;;;4.17;;
4106;SDS011;21906;50.812;7.132;2023-05-07T00:11:19;4.77;;;4.47;;
4106;SDS011;21906;50.812;7.132;2023-05-07T00:13:45;4.20;;;4.00;;
4106;SDS011;21906;50.812;7.132;2023-05-07T00:16:11;5.40;;;5.10;;
4106;SDS011;21906;50.812;7.132;2023-05-07T00:18:37;4.77;;;4.47;;
4106;SDS011;21906;50.812;7.132;2023-05-07T00:21:02;4.90;;;4.47;;
4106;SDS011;21906;50.812;7.132;2023-05-07T00:23:28;4.67;;;4.27;;
4106;SDS011;21906;50.812;7.132;2023-05-07T00:25:54;4.03;;;3.83;;
4106;SDS011;21906;50.812;7.132;2023-05-07T00:28:19;4.03;;;3.83;;
4106;SDS011;21906;50.812;7.132;2023-05-07T00:30:45;4.60;;;4.20;;
4106;SDS011;21906;50.812;7.132;2023-05-07T00:33:10;4.93;;;4.30;;
4106;SDS011;21906;50.812;7.132;2023-05-07T00:35:36;5.47;;;4.00;;
4106;SDS011;21906;50.812;7.132;2023-05-07T00:38:02;4.60;;;4.20;;
4106;SDS011;21906;50.812;7.132;2023-05-07T00:40:27;4.47;;;4.17;;
4106;SDS011;21906;50.812;7.132;2023-05-07T00:42:53;4.63;;;4.30;;
4106;SDS011;21906;50.812;7.132;2023-05-07T00:45:21;4.30;;;4.10;;
4106;SDS011;21906;50.812;7.132;2023-05-07T00:47:51;4.77;;;4.40;;
4106;SDS011;21906;50.812;7.132;2023-05-07T00:50:19;4.60;;;4.17;;
4106;SDS011;21906;50.812;7.132;2023-05-07T00:52:45;4.00;;;3.80;;
4106;SDS011;21906;50.812;7.132;2023-05-07T00:55:10;4.30;;;4.00;;
4106;SDS011;21906;50.812;7.132;2023-05-07T00:57:39;4.30;;;4.10;;
4106;SDS011;21906;50.812;7.132;2023-05-07T01:00:06;4.53;;;4.20;;
4106;SDS011;21906;50.812;7.132;2023-05-07T01:02:37;4.70;;;4.30;;
4106;SDS011;21906;50.812;7.132;2023-05-07T01:05:04;4.17;;;3.87;;
4106;SDS011;21906;50.812;7.132;2023-05-07T01:07:32;4.30;;;4.03;;
4106;SDS011;21906;50.812;7.132;2023-05-07T01:09:59;4.07;;;3.87;;
4106;SDS011;21906;50.812;7.132;2023-05-07T01:12:26;4.27;;;3.87;;
4106;SDS011;21906;50.812;7.132;2023-05-07T01:14:52;5.30;;;4.17;;
4106;SDS011;21906;50.812;7.132;2023-05-07T01:17:19;4.43;;;4.13;;
4106;SDS011;21906;50.812;7.132;2023-05-07T01:19:44;4.70;;;4.40;;
4106;SDS011;21906;50.812;7.132;2023-05-07T01:22:10;4.97;;;4.57;;
4106;SDS011;21906;50.812;7.132;2023-05-07T01:24:37;4.10;;;3.80;;
4106;SDS011;21906;50.812;7.132;2023-05-07T01:27:03;3.93;;;3.73;;
4106;SDS011;21906;50.812;7.132;2023-05-07T01:29:29;4.17;;;3.97;;
4106;SDS011;21906;50.812;7.132;2023-05-07T01:31:56;4.47;;;4.10;;
4106;SDS011;21906;50.812;7.132;2023-05-07T01:34:25;4.00;;;3.70;;
4106;SDS011;21906;50.812;7.132;2023-05-07T01:36:52;4.80;;;4.13;;
4106;SDS011;21906;50.812;7.132;2023-05-07T01:45:17;4.10;;;3.80;;
4106;SDS011;21906;50.812;7.132;2023-05-07T01:47:43;4.27;;;3.87;;
4106;SDS011;21906;50.812;7.132;2023-05-07T01:50:09;3.97;;;3.77;;
4106;SDS011;21906;50.812;7.132;2023-05-07T01:52:36;3.60;;;3.40;;
4106;SDS011;21906;50.812;7.132;2023-05-07T01:55:03;4.10;;;3.80;;
4106;SDS011;21906;50.812;7.132;2023-05-07T01:57:29;3.90;;;3.70;;
4106;SDS011;21906;50.812;7.132;2023-05-07T01:59:55;4.00;;;3.70;;
4106;SDS011;21906;50.812;7.132;2023-05-07T02:02:21;5.23;;;3.90;;
4106;SDS011;21906;50.812;7.132;2023-05-07T02:04:46;4.03;;;3.73;;
4106;SDS011;21906;50.812;7.132;2023-05-07T02:07:12;4.10;;;3.80;;
4106;SDS011;21906;50.812;7.132;2023-05-07T02:09:37;4.37;;;3.40;;
4106;SDS011;21906;50.812;7.132;2023-05-07T02:12:03;4.07;;;3.87;;
4106;SDS011;21906;50.812;7.132;2023-05-07T02:14:29;4.10;;;3.87;;
4106;SDS011;21906;50.812;7.132;2023-05-07T02:16:55;4.33;;;3.90;;
4106;SDS011;21906;50.812;7.132;2023-05-07T02:19:20;3.97;;;3.77;;
4106;SDS011;21906;50.812;7.132;2023-05-07T02:21:46;3.77;;;3.57;;
4106;SDS011;21906;50.812;7.132;2023-05-07T02:24:12;9.53;;;4.40;;
4106;SDS011;21906;50.812;7.132;2023-05-07T02:26:39;4.50;;;4.20;;
4106;SDS011;21906;50.812;7.132;2023-05-07T02:29:05;4.30;;;4.00;;
4106;SDS011;21906;50.812;7.132;2023-05-07T02:31:31;4.43;;;4.13;;
4106;SDS011;21906;50.812;7.132;2023-05-07T02:33:58;4.10;;;3.80;;
4106;SDS011;21906;50.812;7.132;2023-05-07T02:36:24;4.17;;;3.87;;
4106;SDS011;21906;50.812;7.132;2023-05-07T02:38:51;4.23;;;4.03;;
4106;SDS011;21906;50.812;7.132;2023-05-07T02:41:17;4.87;;;4.47;;
4106;SDS011;21906;50.812;7.132;2023-05-07T02:43:42;4.30;;;4.00;;
4106;SDS011;21906;50.812;7.132;2023-05-07T02:46:08;6.63;;;4.10;;
4106;SDS011;21906;50.812;7.132;2023-05-07T02:48:34;6.13;;;4.17;;
4106;SDS011;21906;50.812;7.132;2023-05-07T02:51:00;4.17;;;3.93;;
4106;SDS011;21906;50.812;7.132;2023-05-07T02:53:27;7.20;;;3.83;;
4106;SDS011;21906;50.812;7.132;2023-05-07T02:55:55;3.87;;;3.67;;
4106;SDS011;21906;50.812;7.132;2023-05-07T02:58:22;4.27;;;3.97;;
4106;SDS011;21906;50.812;7.132;2023-05-07T03:00:47;4.53;;;4.23;;
4106;SDS011;21906;50.812;7.132;2023-05-07T03:03:13;3.93;;;3.70;;
4106;SDS011;21906;50.812;7.132;2023-05-07T03:05:39;3.90;;;3.70;;
4106;SDS011;21906;50.812;7.132;2023-05-07T03:08:05;4.47;;;4.03;;
4106;SDS011;21906;50.812;7.132;2023-05-07T03:10:31;3.90;;;3.60;;
4106;SDS011;21906;50.812;7.132;2023-05-07T03:12:56;4.17;;;3.87;;
4106;SDS011;21906;50.812;7.132;2023-05-07T03:15:22;4.13;;;3.83;;
4106;SDS011;21906;50.812;7.132;2023-05-07T03:17:48;3.93;;;3.73;;
4106;SDS011;21906;50.812;7.132;2023-05-07T03:20:14;4.33;;;3.90;;
4106;SDS011;21906;50.812;7.132;2023-05-07T03:22:39;4.70;;;4.33;;
4106;SDS011;21906;50.812;7.132;2023-05-07T03:25:05;3.93;;;3.73;;
4106;SDS011;21906;50.812;7.132;2023-05-07T03:27:31;4.27;;;3.87;;
4106;SDS011;21906;50.812;7.132;2023-05-07T03:29:57;3.90;;;3.70;;
4106;SDS011;21906;50.812;7.132;2023-05-07T03:32:23;4.57;;;4.27;;
4106;SDS011;21906;50.812;7.132;2023-05-07T03:34:48;4.30;;;4.00;;
4106;SDS011;21906;50.812;7.132;2023-05-07T03:37:14;3.83;;;3.53;;
4106;SDS011;21906;50.812;7.132;2023-05-07T03:39:40;4.60;;;4.30;;
4106;SDS011;21906;50.812;7.132;2023-05-07T03:42:05;4.13;;;3.80;;
4106;SDS011;21906;50.812;7.132;2023-05-07T03:44:31;4.67;;;4.10;;
4106;SDS011;21906;50.812;7.132;2023-05-07T03:46:57;4.40;;;4.20;;
4106;SDS011;21906;50.812;7.132;2023-05-07T03:49:22;5.70;;;4.27;;
4106;SDS011;21906;50.812;7.132;2023-05-07T03:51:48;5.00;;;3.73;;
4106;SDS011;21906;50.812;7.132;2023-05-07T03:54:14;4.27;;;4.03;;
4106;SDS011;21906;50.812;7.132;2023-05-07T03:56:39;4.20;;;3.90;;
4106;SDS011;21906;50.812;7.132;2023-05-07T03:59:05;3.93;;;3.73;;
4106;SDS011;21906;50.812;7.132;2023-05-07T04:01:31;4.27;;;3.97;;
4106;SDS011;21906;50.812;7.132;2023-05-07T04:03:56;4.30;;;4.10;;
4106;SDS011;21906;50.812;7.132;2023-05-07T04:06:22;4.70;;;4.40;;
4106;SDS011;21906;50.812;7.132;2023-05-07T04:08:48;4.30;;;4.10;;
4106;SDS011;21906;50.812;7.132;2023-05-07T04:11:13;4.20;;;3.90;;
4106;SDS011;21906;50.812;7.132;2023-05-07T04:13:39;3.87;;;3.57;;
4106;SDS011;21906;50.812;7.132;2023-05-07T04:16:04;4.33;;;4.13;;
4106;SDS011;21906;50.812;7.132;2023-05-07T04:18:30;3.80;;;3.60;;
4106;SDS011;21906;50.812;7.132;2023-05-07T04:20:56;4.03;;;3.83;;
4106;SDS011;21906;50.812;7.132;2023-05-07T04:23:22;5.43;;;4.30;;
4106;SDS011;21906;50.812;7.132;2023-05-07T04:25:47;4.17;;;3.87;;
4106;SDS011;21906;50.812;7.132;2023-05-07T04:28:13;4.47;;;4.07;;
4106;SDS011;21906;50.812;7.132;2023-05-07T04:30:39;9.20;;;4.57;;
4106;SDS011;21906;50.812;7.132;2023-05-07T04:33:06;4.10;;;3.90;;
4106;SDS011;21906;50.812;7.132;2023-05-07T04:35:32;4.13;;;3.83;;
4106;SDS011;21906;50.812;7.132;2023-05-07T04:37:57;4.70;;;4.30;;
4106;SDS011;21906;50.812;7.132;2023-05-07T04:40:23;4.60;;;4.20;;
4106;SDS011;21906;50.812;7.132;2023-05-07T04:42:49;4.40;;;4.00;;
4106;SDS011;21906;50.812;7.132;2023-05-07T04:45:14;4.03;;;3.73;;
4106;SDS011;21906;50.812;7.132;2023-05-07T04:47:40;4.20;;;3.90;;
4106;SDS011;21906;50.812;7.132;2023-05-07T04:50:06;4.37;;;4.10;;
4106;SDS011;21906;50.812;7.132;2023-05-07T04:52:33;4.33;;;4.03;;
4106;SDS011;21906;50.812;7.132;2023-05-07T04:54:59;3.70;;;3.50;;
4106;SDS011;21906;50.812;7.132;2023-05-07T04:57:25;4.43;;;4.13;;
4106;SDS011;21906;50.812;7.132;2023-05-07T04:59:52;4.30;;;4.00;;
4106;SDS011;21906;50.812;7.132;2023-05-07T05:02:18;4.43;;;4.00;;
4106;SDS011;21906;50.812;7.132;2023-05-07T05:04:44;4.03;;;3.73;;
4106;SDS011;21906;50.812;7.132;2023-05-07T05:07:10;4.17;;;3.83;;
4106;SDS011;21906;50.812;7.132;2023-05-07T05:09:35;4.30;;;4.00;;
4106;SDS011;21906;50.812;7.132;2023-05-07T05:12:01;4.30;;;4.00;;
4106;SDS011;21906;50.812;7.132;2023-05-07T05:14:27;4.30;;;4.00;;
4106;SDS011;21906;50.812;7.132;2023-05-07T05:16:53;4.07;;;3.87;;
4106;SDS011;21906;50.812;7.132;2023-05-07T05:19:18;4.47;;;4.10;;
4106;SDS011;21906;50.812;7.132;2023-05-07T05:21:44;3.93;;;3.60;;
4106;SDS011;21906;50.812;7.132;2023-05-07T05:24:10;3.70;;;3.50;;
4106;SDS011;21906;50.812;7.132;2023-05-07T05:26:35;3.90;;;3.60;;
4106;SDS011;21906;50.812;7.132;2023-05-07T05:29:01;3.83;;;3.63;;
4106;SDS011;21906;50.812;7.132;2023-05-07T05:31:26;3.57;;;3.37;;
4106;SDS011;21906;50.812;7.132;2023-05-07T05:33:52;3.47;;;3.27;;
4106;SDS011;21906;50.812;7.132;2023-05-07T05:36:18;4.03;;;3.73;;
4106;SDS011;21906;50.812;7.132;2023-05-07T05:38:43;4.17;;;3.83;;
4106;SDS011;21906;50.812;7.132;2023-05-07T05:41:09;4.77;;;3.70;;
4106;SDS011;21906;50.812;7.132;2023-05-07T05:43:35;5.60;;;3.80;;
4106;SDS011;21906;50.812;7.132;2023-05-07T05:46:01;4.13;;;3.93;;
4106;SDS011;21906;50.812;7.132;2023-05-07T05:48:26;3.80;;;3.50;;
4106;SDS011;21906;50.812;7.132;2023-05-07T05:50:53;4.30;;;4.10;;
4106;SDS011;21906;50.812;7.132;2023-05-07T05:53:19;3.97;;;3.77;;
4106;SDS011;21906;50.812;7.132;2023-05-07T05:55:45;3.70;;;3.43;;
4106;SDS011;21906;50.812;7.132;2023-05-07T05:58:10;3.70;;;3.50;;
4106;SDS011;21906;50.812;7.132;2023-05-07T06:00:36;3.93;;;3.73;;
4106;SDS011;21906;50.812;7.132;2023-05-07T06:03:02;4.03;;;3.33;;
4106;SDS011;21906;50.812;7.132;2023-05-07T06:05:28;3.60;;;3.40;;
4106;SDS011;21906;50.812;7.132;2023-05-07T06:07:53;3.43;;;3.23;;
4106;SDS011;21906;50.812;7.132;2023-05-07T06:10:19;3.60;;;3.40;;
4106;SDS011;21906;50.812;7.132;2023-05-07T06:12:44;3.53;;;3.33;;
4106;SDS011;21906;50.812;7.132;2023-05-07T06:15:10;3.63;;;3.03;;
4106;SDS011;21906;50.812;7.132;2023-05-07T06:17:36;4.17;;;3.90;;
4106;SDS011;21906;50.812;7.132;2023-05-07T06:20:01;4.00;;;3.60;;
4106;SDS011;21906;50.812;7.132;2023-05-07T06:22:27;3.57;;;3.27;;
4106;SDS011;21906;50.812;7.132;2023-05-07T06:24:53;3.53;;;3.33;;
4106;SDS011;21906;50.812;7.132;2023-05-07T06:27:18;3.70;;;3.07;;
4106;SDS011;21906;50.812;7.132;2023-05-07T06:29:44;3.57;;;3.37;;
4106;SDS011;21906;50.812;7.132;2023-05-07T06:32:10;3.13;;;2.93;;
4106;SDS011;21906;50.812;7.132;2023-05-07T06:34:36;3.20;;;3.00;;
4106;SDS011;21906;50.812;7.132;2023-05-07T06:37:02;3.30;;;3.10;;
4106;SDS011;21906;50.812;7.132;2023-05-07T06:39:28;3.63;;;3.30;;
4106;SDS011;21906;50.812;7.132;2023-05-07T06:41:54;3.47;;;3.27;;
4106;SDS011;21906;50.812;7.132;2023-05-07T06:44:20;3.47;;;3.27;;
4106;SDS011;21906;50.812;7.132;2023-05-07T06:46:45;3.20;;;3.00;;
4106;SDS011;21906;50.812;7.132;2023-05-07T06:49:14;3.90;;;3.27;;
4106;SDS011;21906;50.812;7.132;2023-05-07T06:51:40;3.30;;;3.10;;
4106;SDS011;21906;50.812;7.132;2023-05-07T06:54:06;3.00;;;2.80;;
4106;SDS011;21906;50.812;7.132;2023-05-07T06:56:32;3.10;;;2.90;;
4106;SDS011;21906;50.812;7.132;2023-05-07T06:58:59;3.50;;;3.20;;
4106;SDS011;21906;50.812;7.132;2023-05-07T07:01:25;3.80;;;3.60;;
4106;SDS011;21906;50.812;7.132;2023-05-07T07:03:51;3.23;;;3.03;;
4106;SDS011;21906;50.812;7.132;2023-05-07T07:06:17;3.20;;;3.00;;
4106;SDS011;21906;50.812;7.132;2023-05-07T07:08:42;4.20;;;3.00;;
4106;SDS011;21906;50.812;7.132;2023-05-07T07:11:08;3.30;;;3.00;;
4106;SDS011;21906;50.812;7.132;2023-05-07T07:13:35;3.60;;;3.40;;
4106;SDS011;21906;50.812;7.132;2023-05-07T07:16:00;3.30;;;2.60;;
4106;SDS011;21906;50.812;7.132;2023-05-07T07:18:26;3.33;;;3.00;;
4106;SDS011;21906;50.812;7.132;2023-05-07T07:20:52;3.10;;;2.90;;
4106;SDS011;21906;50.812;7.132;2023-05-07T07:23:18;2.80;;;2.57;;
4106;SDS011;21906;50.812;7.132;2023-05-07T07:25:44;3.07;;;2.73;;
4106;SDS011;21906;50.812;7.132;2023-05-07T07:28:09;3.10;;;2.90;;
4106;SDS011;21906;50.812;7.132;2023-05-07T07:30:36;2.93;;;2.60;;
4106;SDS011;21906;50.812;7.132;2023-05-07T07:33:02;3.00;;;2.70;;
4106;SDS011;21906;50.812;7.132;2023-05-07T07:35:28;2.90;;;2.70;;
4106;SDS011;21906;50.812;7.132;2023-05-07T07:37:55;3.10;;;2.90;;
4106;SDS011;21906;50.812;7.132;2023-05-07T07:40:20;3.27;;;2.97;;
4106;SDS011;21906;50.812;7.132;2023-05-07T07:42:46;3.23;;;3.03;;
4106;SDS011;21906;50.812;7.132;2023-05-07T07:45:12;3.00;;;2.90;;
4106;SDS011;21906;50.812;7.132;2023-05-07T07:47:37;3.30;;;3.10;;
4106;SDS011;21906;50.812;7.132;2023-05-07T07:50:05;2.87;;;2.67;;
4106;SDS011;21906;50.812;7.132;2023-05-07T07:52:31;3.00;;;2.80;;
4106;SDS011;21906;50.812;7.132;2023-05-07T07:54:57;3.63;;;3.00;;
4106;SDS011;21906;50.812;7.132;2023-05-07T07:57:22;3.07;;;2.87;;
4106;SDS011;21906;50.812;7.132;2023-05-07T07:59:48;2.77;;;2.57;;
4106;SDS011;21906;50.812;7.132;2023-05-07T08:02:14;3.77;;;2.57;;
4106;SDS011;21906;50.812;7.132;2023-05-07T08:04:40;3.13;;;2.90;;
4106;SDS011;21906;50.812;7.132;2023-05-07T08:07:06;2.80;;;2.60;;
4106;SDS011;21906;50.812;7.132;2023-05-07T08:09:32;3.53;;;3.33;;
4106;SDS011;21906;50.812;7.132;2023-05-07T08:11:58;2.60;;;2.50;;
4106;SDS011;21906;50.812;7.132;2023-05-07T08:14:23;3.00;;;2.90;;
4106;SDS011;21906;50.812;7.132;2023-05-07T08:16:49;3.37;;;3.13;;
4106;SDS011;21906;50.812;7.132;2023-05-07T08:19:15;3.80;;;3.60;;
4106;SDS011;21906;50.812;7.132;2023-05-07T08:21:40;3.33;;;3.03;;
4106;SDS011;21906;50.812;7.132;2023-05-07T08:24:06;3.10;;;2.90;;
4106;SDS011;21906;50.812;7.132;2023-05-07T08:26:32;3.90;;;3.70;;
4106;SDS011;21906;50.812;7.132;2023-05-07T08:28:57;3.20;;;2.90;;
4106;SDS011;21906;50.812;7.132;2023-05-07T08:31:23;3.57;;;3.27;;
4106;SDS011;21906;50.812;7.132;2023-05-07T08:33:49;3.03;;;2.80;;
4106;SDS011;21906;50.812;7.132;2023-05-07T08:36:15;3.27;;;3.07;;
4106;SDS011;21906;50.812;7.132;2023-05-07T08:38:40;3.30;;;3.10;;
4106;SDS011;21906;50.812;7.132;2023-05-07T08:41:09;2.90;;;2.70;;
4106;SDS011;21906;50.812;7.132;2023-05-07T08:43:35;4.10;;;2.80;;
4106;SDS011;21906;50.812;7.132;2023-05-07T08:46:02;3.17;;;2.97;;
4106;SDS011;21906;50.812;7.132;2023-05-07T08:48:30;2.77;;;2.57;;
4106;SDS011;21906;50.812;7.132;2023-05-07T08:50:57;3.27;;;2.97;;
4106;SDS011;21906;50.812;7.132;2023-05-07T08:53:23;3.27;;;3.07;;
4106;SDS011;21906;50.812;7.132;2023-05-07T08:55:49;3.50;;;3.27;;
4106;SDS011;21906;50.812;7.132;2023-05-07T08:58:16;2.90;;;2.70;;
4106;SDS011;21906;50.812;7.132;2023-05-07T09:00:41;3.03;;;2.60;;
4106;SDS011;21906;50.812;7.132;2023-05-07T09:03:08;3.07;;;2.87;;
4106;SDS011;21906;50.812;7.132;2023-05-07T09:05:37;3.00;;;2.80;;
4106;SDS011;21906;50.812;7.132;2023-05-07T09:08:03;3.53;;;3.17;;
4106;SDS011;21906;50.812;7.132;2023-05-07T09:10:29;2.80;;;2.70;;
4106;SDS011;21906;50.812;7.132;2023-05-07T09:12:57;2.80;;;2.60;;
4106;SDS011;21906;50.812;7.132;2023-05-07T09:15:23;3.20;;;3.00;;
4106;SDS011;21906;50.812;7.132;2023-05-07T09:17:48;3.27;;;3.07;;
4106;SDS011;21906;50.812;7.132;2023-05-07T09:20:14;3.20;;;3.00;;
4106;SDS011;21906;50.812;7.132;2023-05-07T09:22:41;2.93;;;2.80;;
4106;SDS011;21906;50.812;7.132;2023-05-07T09:25:09;3.30;;;3.10;;
4106;SDS011;21906;50.812;7.132;2023-05-07T09:27:34;3.30;;;3.10;;
4106;SDS011;21906;50.812;7.132;2023-05-07T09:30:04;2.90;;;2.70;;
4106;SDS011;21906;50.812;7.132;2023-05-07T09:32:34;2.77;;;2.67;;
4106;SDS011;21906;50.812;7.132;2023-05-07T09:35:01;3.50;;;3.30;;
4106;SDS011;21906;50.812;7.132;2023-05-07T09:37:28;3.20;;;3.00;;
4106;SDS011;21906;50.812;7.132;2023-05-07T09:39:56;2.90;;;2.70;;
4106;SDS011;21906;50.812;7.132;2023-05-07T09:42:25;3.40;;;3.03;;
4106;SDS011;21906;50.812;7.132;2023-05-07T09:44:53;2.83;;;2.63;;
4106;SDS011;21906;50.812;7.132;2023-05-07T09:47:20;3.30;;;3.10;;
4106;SDS011;21906;50.812;7.132;2023-05-07T09:49:48;2.93;;;2.73;;
4106;SDS011;21906;50.812;7.132;2023-05-07T09:52:15;3.10;;;2.90;;
4106;SDS011;21906;50.812;7.132;2023-05-07T09:54:41;3.30;;;3.00;;
4106;SDS011;21906;50.812;7.132;2023-05-07T09:57:10;3.30;;;3.10;;
4106;SDS011;21906;50.812;7.132;2023-05-07T09:59:37;3.37;;;2.90;;
4106;SDS011;21906;50.812;7.132;2023-05-07T10:02:03;3.27;;;3.07;;
4106;SDS011;21906;50.812;7.132;2023-05-07T10:04:30;3.13;;;2.83;;
4106;SDS011;21906;50.812;7.132;2023-05-07T10:06:57;3.00;;;2.80;;
4106;SDS011;21906;50.812;7.132;2023-05-07T10:09:25;3.40;;;3.10;;
4106;SDS011;21906;50.812;7.132;2023-05-07T10:11:51;3.40;;;3.20;;
4106;SDS011;21906;50.812;7.132;2023-05-07T10:14:17;2.93;;;2.83;;
4106;SDS011;21906;50.812;7.132;2023-05-07T10:16:44;3.10;;;2.80;;
4106;SDS011;21906;50.812;7.132;2023-05-07T10:19:11;3.17;;;2.87;;
4106;SDS011;21906;50.812;7.132;2023-05-07T10:21:37;3.13;;;2.93;;
4106;SDS011;21906;50.812;7.132;2023-05-07T10:26:38;3.70;;;3.40;;
4106;SDS011;21906;50.812;7.132;2023-05-07T10:29:12;3.20;;;3.00;;
4106;SDS011;21906;50.812;7.132;2023-05-07T10:34:26;3.37;;;3.07;;
4106;SDS011;21906;50.812;7.132;2023-05-07T10:36:57;3.20;;;3.00;;
4106;SDS011;21906;50.812;7.132;2023-05-07T10:39:23;3.47;;;3.23;;
4106;SDS011;21906;50.812;7.132;2023-05-07T10:41:49;3.10;;;2.90;;
4106;SDS011;21906;50.812;7.132;2023-05-07T10:44:28;3.03;;;2.93;;
4106;SDS011;21906;50.812;7.132;2023-05-07T10:47:13;3.40;;;3.20;;
4106;SDS011;21906;50.812;7.132;2023-05-07T10:52:15;3.00;;;2.80;;
4106;SDS011;21906;50.812;7.132;2023-05-07T10:54:43;3.03;;;2.83;;
4106;SDS011;21906;50.812;7.132;2023-05-07T10:59:56;2.87;;;2.77;;
4106;SDS011;21906;50.812;7.132;2023-05-07T11:02:22;3.10;;;2.90;;
4106;SDS011;21906;50.812;7.132;2023-05-07T11:05:21;3.60;;;3.30;;
4106;SDS011;21906;50.812;7.132;2023-05-07T11:07:53;3.30;;;2.93;;
4106;SDS011;21906;50.812;7.132;2023-05-07T11:10:20;2.80;;;2.60;;
4106;SDS011;21906;50.812;7.132;2023-05-07T11:12:47;2.73;;;2.63;;
4106;SDS011;21906;50.812;7.132;2023-05-07T11:15:32;2.80;;;2.67;;
4106;SDS011;21906;50.812;7.132;2023-05-07T11:18:00;2.90;;;2.70;;
4106;SDS011;21906;50.812;7.132;2023-05-07T11:20:47;2.80;;;2.60;;
4106;SDS011;21906;50.812;7.132;2023-05-07T11:26:03;2.60;;;2.50;;
4106;SDS011;21906;50.812;7.132;2023-05-07T11:28:30;2.83;;;2.73;;
4106;SDS011;21906;50.812;7.132;2023-05-07T11:30:56;2.50;;;2.40;;
4106;SDS011;21906;50.812;7.132;2023-05-07T11:33:22;3.00;;;2.80;;
4106;SDS011;21906;50.812;7.132;2023-05-07T11:35:50;2.90;;;2.70;;
4106;SDS011;21906;50.812;7.132;2023-05-07T11:38:18;2.60;;;2.50;;
4106;SDS011;21906;50.812;7.132;2023-05-07T11:40:55;2.70;;;2.50;;
4106;SDS011;21906;50.812;7.132;2023-05-07T11:43:22;2.70;;;2.50;;
4106;SDS011;21906;50.812;7.132;2023-05-07T11:45:48;3.60;;;2.90;;
4106;SDS011;21906;50.812;7.132;2023-05-07T11:48:14;2.70;;;2.50;;
4106;SDS011;21906;50.812;7.132;2023-05-07T11:50:50;2.70;;;2.50;;
4106;SDS011;21906;50.812;7.132;2023-05-07T11:53:26;2.73;;;2.53;;
4106;SDS011;21906;50.812;7.132;2023-05-07T11:55:52;2.50;;;2.40;;
4106;SDS011;21906;50.812;7.132;2023-05-07T11:58:22;2.87;;;2.67;;
4106;SDS011;21906;50.812;7.132;2023-05-07T12:00:49;2.80;;;2.53;;
4106;SDS011;21906;50.812;7.132;2023-05-07T12:03:15;2.93;;;2.73;;
4106;SDS011;21906;50.812;7.132;2023-05-07T12:05:41;2.47;;;2.37;;
4106;SDS011;21906;50.812;7.132;2023-05-07T12:08:07;2.40;;;2.30;;
4106;SDS011;21906;50.812;7.132;2023-05-07T12:10:33;2.83;;;2.63;;
4106;SDS011;21906;50.812;7.132;2023-05-07T12:12:58;2.93;;;2.50;;
4106;SDS011;21906;50.812;7.132;2023-05-07T12:15:24;2.70;;;2.50;;
4106;SDS011;21906;50.812;7.132;2023-05-07T12:17:50;2.43;;;2.33;;
4106;SDS011;21906;50.812;7.132;2023-05-07T12:20:17;2.20;;;2.10;;
4106;SDS011;21906;50.812;7.132;2023-05-07T12:22:43;2.67;;;2.57;;
4106;SDS011;21906;50.812;7.132;2023-05-07T12:25:09;2.47;;;2.37;;
4106;SDS011;21906;50.812;7.132;2023-05-07T12:27:36;2.40;;;2.30;;
4106;SDS011;21906;50.812;7.132;2023-05-07T12:30:03;2.80;;;2.70;;
4106;SDS011;21906;50.812;7.132;2023-05-07T12:32:29;2.50;;;2.40;;
4106;SDS011;21906;50.812;7.132;2023-05-07T12:34:55;2.60;;;2.40;;
4106;SDS011;21906;50.812;7.132;2023-05-07T12:37:24;2.23;;;2.13;;
4106;SDS011;21906;50.812;7.132;2023-05-07T12:40:04;2.10;;;2.00;;
4106;SDS011;21906;50.812;7.132;2023-05-07T12:42:39;2.60;;;2.50;;
4106;SDS011;21906;50.812;7.132;2023-05-07T12:45:11;2.80;;;2.60;;
4106;SDS011;21906;50.812;7.132;2023-05-07T12:47:38;2.77;;;2.57;;
4106;SDS011;21906;50.812;7.132;2023-05-07T12:50:07;2.50;;;2.40;;
4106;SDS011;21906;50.812;7.132;2023-05-07T12:52:33;3.00;;;2.80;;
4106;SDS011;21906;50.812;7.132;2023-05-07T12:55:08;2.73;;;2.57;;
4106;SDS011;21906;50.812;7.132;2023-05-07T12:57:38;3.33;;;3.10;;
4106;SDS011;21906;50.812;7.132;2023-05-07T13:00:08;3.23;;;3.03;;
4106;SDS011;21906;50.812;7.132;2023-05-07T13:02:36;3.47;;;3.23;;
4106;SDS011;21906;50.812;7.132;2023-05-07T13:05:03;3.20;;;3.00;;
4106;SDS011;21906;50.812;7.132;2023-05-07T13:07:29;3.23;;;3.03;;
4106;SDS011;21906;50.812;7.132;2023-05-07T13:09:55;3.70;;;3.40;;
4106;SDS011;21906;50.812;7.132;2023-05-07T13:12:20;3.90;;;3.70;;
4106;SDS011;21906;50.812;7.132;2023-05-07T13:14:46;2.70;;;2.60;;
4106;SDS011;21906;50.812;7.132;2023-05-07T13:17:12;3.37;;;3.17;;
4106;SDS011;21906;50.812;7.132;2023-05-07T13:19:38;3.03;;;2.83;;
4106;SDS011;21906;50.812;7.132;2023-05-07T13:22:03;3.30;;;3.00;;
4106;SDS011;21906;50.812;7.132;2023-05-07T13:24:29;3.03;;;2.83;;
4106;SDS011;21906;50.812;7.132;2023-05-07T13:26:55;2.47;;;2.27;;
4106;SDS011;21906;50.812;7.132;2023-05-07T13:29:20;2.73;;;2.60;;
4106;SDS011;21906;50.812;7.132;2023-05-07T13:31:53;2.60;;;2.50;;
4106;SDS011;21906;50.812;7.132;2023-05-07T13:34:19;2.80;;;2.70;;
4106;SDS011;21906;50.812;7.132;2023-05-07T13:36:45;2.93;;;2.73;;
4106;SDS011;21906;50.812;7.132;2023-05-07T13:39:11;2.70;;;2.60;;
4106;SDS011;21906;50.812;7.132;2023-05-07T13:41:37;2.90;;;2.70;;
4106;SDS011;21906;50.812;7.132;2023-05-07T13:44:02;3.70;;;3.50;;
4106;SDS011;21906;50.812;7.132;2023-05-07T13:46:28;3.40;;;3.20;;
4106;SDS011;21906;50.812;7.132;2023-05-07T13:48:54;3.50;;;3.30;;
4106;SDS011;21906;50.812;7.132;2023-05-07T13:51:20;3.70;;;3.40;;
4106;SDS011;21906;50.812;7.132;2023-05-07T13:53:46;3.57;;;3.37;;
4106;SDS011;21906;50.812;7.132;2023-05-07T13:56:12;3.33;;;3.13;;
4106;SDS011;21906;50.812;7.132;2023-05-07T13:58:39;3.23;;;3.03;;
4106;SDS011;21906;50.812;7.132;2023-05-07T14:01:05;3.53;;;3.33;;
4106;SDS011;21906;50.812;7.132;2023-05-07T14:03:31;3.50;;;3.30;;
4106;SDS011;21906;50.812;7.132;2023-05-07T14:05:58;3.60;;;3.40;;
4106;SDS011;21906;50.812;7.132;2023-05-07T14:08:26;3.43;;;3.23;;
4106;SDS011;21906;50.812;7.132;2023-05-07T14:10:52;3.53;;;3.33;;
4106;SDS011;21906;50.812;7.132;2023-05-07T14:13:18;3.60;;;3.10;;
4106;SDS011;21906;50.812;7.132;2023-05-07T14:15:43;3.20;;;3.00;;
4106;SDS011;21906;50.812;7.132;2023-05-07T14:18:13;3.53;;;3.33;;
4106;SDS011;21906;50.812;7.132;2023-05-07T14:20:40;3.40;;;3.20;;
4106;SDS011;21906;50.812;7.132;2023-05-07T14:23:05;3.60;;;3.40;;
4106;SDS011;21906;50.812;7.132;2023-05-07T14:25:31;3.03;;;2.93;;
4106;SDS011;21906;50.812;7.132;2023-05-07T14:27:57;3.50;;;3.20;;
4106;SDS011;21906;50.812;7.132;2023-05-07T14:30:23;5.17;;;3.40;;
4106;SDS011;21906;50.812;7.132;2023-05-07T14:32:49;4.27;;;3.97;;
4106;SDS011;21906;50.812;7.132;2023-05-07T14:35:15;4.07;;;3.77;;
4106;SDS011;21906;50.812;7.132;2023-05-07T14:37:41;4.37;;;4.07;;
4106;SDS011;21906;50.812;7.132;2023-05-07T14:40:07;4.90;;;4.50;;
4106;SDS011;21906;50.812;7.132;2023-05-07T14:42:33;5.30;;;5.00;;
4106;SDS011;21906;50.812;7.132;2023-05-07T14:44:59;6.03;;;5.03;;
4106;SDS011;21906;50.812;7.132;2023-05-07T14:47:25;5.27;;;4.87;;
4106;SDS011;21906;50.812;7.132;2023-05-07T14:49:50;5.40;;;5.00;;
4106;SDS011;21906;50.812;7.132;2023-05-07T14:52:16;4.57;;;4.27;;
4106;SDS011;21906;50.812;7.132;2023-05-07T14:54:42;5.17;;;4.67;;
4106;SDS011;21906;50.812;7.132;2023-05-07T14:57:08;4.37;;;4.07;;
4106;SDS011;21906;50.812;7.132;2023-05-07T14:59:35;4.50;;;4.20;;
4106;SDS011;21906;50.812;7.132;2023-05-07T15:02:01;4.30;;;3.93;;
4106;SDS011;21906;50.812;7.132;2023-05-07T15:04:26;3.53;;;3.23;;
4106;SDS011;21906;50.812;7.132;2023-05-07T15:06:52;3.50;;;3.20;;
4106;SDS011;21906;50.812;7.132;2023-05-07T15:09:21;3.20;;;3.00;;
4106;SDS011;21906;50.812;7.132;2023-05-07T15:11:46;3.10;;;2.80;;
4106;SDS011;21906;50.812;7.132;2023-05-07T15:14:12;3.20;;;3.00;;
4106;SDS011;21906;50.812;7.132;2023-05-07T15:16:38;2.87;;;2.67;;